Time;durP1;ratioP1;P1;durP2;ratioP2;P2;SDS_P1;SDS_P2;PMS_P1;PMS_P2;Temp;Humidity;BMP_temperature;BMP_pressure;BME280_temperature;BME280_humidity;BME280_pressure;Samples;Min_cycle;Max_cycle;Signal;HPM_P1;HPM_P2
2021/05/23 00:01:26;;;;;;;5.57;2.80;;;;;;;9.37;87.20;98823.84;5104721;28;20099;-69
2021/05/23 00:03:51;;;;;;;5.57;2.90;;;;;;;9.36;87.30;98816.09;5104495;28;20154;-68
2021/05/23 00:06:17;;;;;;;5.75;2.72;;;;;;;9.48;86.85;98820.94;5104804;28;20027;-68
2021/05/23 00:08:42;;;;;;;12.75;2.72;;;;;;;9.34;87.65;98816.16;5104309;28;20047;-68
2021/05/23 00:11:09;;;;;;;6.65;2.47;;;;;;;9.35;87.89;98817.84;5104491;28;20115;-68
2021/05/23 00:13:47;;;;;;;4.28;2.65;;;;;;;9.39;87.64;98816.84;5104548;28;20027;-68
2021/05/23 00:16:18;;;;;;;6.28;2.88;;;;;;;9.38;87.92;98814.31;5104425;28;20032;-68
2021/05/23 00:18:47;;;;;;;5.07;1.65;;;;;;;9.67;86.85;98810.00;5104438;28;20028;-68
2021/05/23 00:21:15;;;;;;;4.10;2.40;;;;;;;9.51;87.11;98807.03;5104226;28;20035;-68
2021/05/23 00:23:40;;;;;;;4.07;2.13;;;;;;;9.42;87.95;98813.34;5104258;28;20339;-68
2021/05/23 00:26:05;;;;;;;10.10;2.60;;;;;;;9.41;87.87;98807.31;5104101;28;20096;-68
2021/05/23 00:28:32;;;;;;;5.20;2.92;;;;;;;9.40;88.45;98818.56;5104331;28;20034;-69
2021/05/23 00:30:59;;;;;;;7.72;2.65;;;;;;;9.48;88.16;98817.47;5104322;28;20079;-69
2021/05/23 00:33:24;;;;;;;6.30;3.45;;;;;;;9.49;88.17;98803.66;5104498;28;20084;-69
2021/05/23 00:35:49;;;;;;;4.85;2.85;;;;;;;9.58;87.74;98810.28;5104307;28;20032;-69
2021/05/23 00:38:15;;;;;;;10.50;3.25;;;;;;;9.60;87.67;98811.09;5104077;28;20028;-68
2021/05/23 00:40:41;;;;;;;13.43;3.60;;;;;;;9.63;87.53;98809.25;5103966;28;20460;-68
2021/05/23 00:43:11;;;;;;;6.82;2.85;;;;;;;9.66;87.54;98808.31;5104042;28;20028;-68
2021/05/23 00:45:38;;;;;;;8.95;1.85;;;;;;;9.54;87.94;98809.53;5103806;28;20028;-68
2021/05/23 00:48:04;;;;;;;0.32;0.32;;;;;;;9.60;88.14;98800.72;5119700;28;20569;-68
2021/05/23 00:50:29;;;;;;;0.30;0.30;;;;;;;9.53;88.54;98813.88;5103877;28;20551;-69
2021/05/23 00:52:55;;;;;;;0.30;0.30;;;;;;;9.60;88.35;98806.75;5103832;28;20032;-68
2021/05/23 00:55:22;;;;;;;0.52;0.52;;;;;;;9.55;88.55;98812.06;5103572;28;20089;-68
2021/05/23 00:57:48;;;;;;;0.30;0.30;;;;;;;9.53;88.53;98805.25;5104168;28;20020;-69
2021/05/23 01:00:33;;;;;;;0.30;0.30;;;;;;;9.57;88.47;98809.44;5103800;28;20028;-69
2021/05/23 01:03:00;;;;;;;0.30;0.30;;;;;;;9.53;88.43;98806.09;5103955;28;20031;-68
2021/05/23 01:05:26;;;;;;;0.30;0.30;;;;;;;9.54;88.69;98806.94;5103873;28;20484;-69
2021/05/23 01:07:51;;;;;;;0.30;0.30;;;;;;;9.60;88.29;98806.75;5103608;28;20127;-69
2021/05/23 01:10:21;;;;;;;0.57;0.57;;;;;;;9.55;88.21;98799.09;5103546;28;20020;-69
2021/05/23 01:12:52;;;;;;;0.20;0.20;;;;;;;9.59;88.48;98812.81;5103903;28;20028;-69
2021/05/23 01:15:27;;;;;;;0.40;0.40;;;;;;;9.71;87.93;98805.59;5119354;28;20024;-69
2021/05/23 01:17:54;;;;;;;0.30;0.30;;;;;;;9.72;87.62;98802.09;5103586;28;20106;-69
2021/05/23 01:20:55;;;;;;;0.30;0.30;;;;;;;9.79;87.04;98798.44;5103499;28;20030;-69
2021/05/23 01:23:35;;;;;;;0.55;0.55;;;;;;;9.73;87.11;98798.63;5080266;28;20032;-68
2021/05/23 01:26:09;;;;;;;0.20;0.20;;;;;;;9.77;86.85;98808.84;5080273;28;20070;-69
2021/05/23 01:28:51;;;;;;;0.30;0.30;;;;;;;9.61;87.48;98812.78;5080539;28;20051;-69
2021/05/23 01:31:19;;;;;;;0.30;0.30;;;;;;;9.60;87.66;98814.50;5080468;28;20029;-69
2021/05/23 01:33:50;;;;;;;0.32;0.32;;;;;;;9.63;87.70;98804.06;5079888;28;20062;-68
2021/05/23 01:36:16;;;;;;;0.70;0.70;;;;;;;9.66;87.41;98803.97;5080147;28;20029;-69
2021/05/23 01:38:41;;;;;;;0.70;0.70;;;;;;;9.55;88.07;98795.69;5080202;28;20035;-69
2021/05/23 01:41:09;;;;;;;0.30;0.30;;;;;;;9.65;87.79;98807.47;5079990;28;20591;-69
2021/05/23 01:43:36;;;;;;;0.30;0.30;;;;;;;9.52;88.20;98806.97;5080197;28;20033;-68
2021/05/23 01:46:02;;;;;;;0.30;0.30;;;;;;;9.58;87.95;98802.50;5079885;28;20024;-69
2021/05/23 01:48:28;;;;;;;0.30;0.30;;;;;;;9.58;87.88;98800.78;5080132;28;20056;-69
2021/05/23 01:50:53;;;;;;;0.30;0.30;;;;;;;9.49;88.10;98807.06;5080063;28;20037;-68
2021/05/23 01:53:19;;;;;;;0.30;0.30;;;;;;;9.58;87.96;98803.38;5079991;28;20284;-68
2021/05/23 01:55:44;;;;;;;0.30;0.30;;;;;;;9.48;88.16;98797.59;5079644;28;20052;-69
2021/05/23 01:58:10;;;;;;;0.30;0.30;;;;;;;9.48;88.53;98800.19;5099484;28;20115;-69
2021/05/23 02:00:45;;;;;;;0.30;0.30;;;;;;;9.53;88.12;98805.25;5103141;28;20122;-68
2021/05/23 02:03:12;;;;;;;0.30;0.30;;;;;;;9.47;88.45;98803.69;5102810;28;20054;-68
2021/05/23 02:05:42;;;;;;;0.30;0.30;;;;;;;9.50;88.19;98802.75;5101803;28;20016;-69
2021/05/23 02:08:08;;;;;;;0.30;0.30;;;;;;;9.51;88.18;98794.94;5102722;28;20464;-69
2021/05/23 02:10:34;;;;;;;0.52;0.52;;;;;;;9.49;88.08;98795.88;5102745;28;20030;-70
2021/05/23 02:13:05;;;;;;;0.30;0.30;;;;;;;9.39;88.70;98792.72;5103135;28;20021;-72
2021/05/23 02:15:31;;;;;;;0.30;0.30;;;;;;;9.45;88.86;98786.47;5103071;28;20023;-70
2021/05/23 02:17:56;;;;;;;1.27;0.52;;;;;;;9.46;88.92;98783.00;5102923;28;20021;-70
2021/05/23 02:20:24;;;;;;;0.30;0.30;;;;;;;9.43;88.83;98786.53;5104833;28;20024;-70
2021/05/23 02:22:51;;;;;;;0.30;0.30;;;;;;;9.48;88.59;98787.25;5106505;28;20020;-71
2021/05/23 02:25:20;;;;;;;0.22;0.22;;;;;;;9.49;88.47;98786.34;5106304;28;20016;-70
2021/05/23 02:27:48;;;;;;;0.30;0.30;;;;;;;9.59;87.96;98789.50;5105508;28;20020;-70
2021/05/23 02:30:35;;;;;;;0.25;0.25;;;;;;;9.46;88.44;98781.25;5106653;28;20035;-70
2021/05/23 02:33:03;;;;;;;0.30;0.30;;;;;;;9.39;88.92;98796.13;5106262;28;20035;-70
2021/05/23 02:35:32;;;;;;;0.30;0.30;;;;;;;9.49;88.73;98795.88;5104696;28;20045;-71
2021/05/23 02:37:58;;;;;;;0.30;0.30;;;;;;;9.41;88.90;98789.16;5106497;28;20019;-70
2021/05/23 02:40:27;;;;;;;0.30;0.30;;;;;;;9.42;89.02;98788.25;5105870;28;20031;-69
2021/05/23 02:42:53;;;;;;;0.30;0.30;;;;;;;9.59;88.42;98792.09;5106227;28;20028;-69
2021/05/23 02:45:18;;;;;;;0.52;0.52;;;;;;;9.46;88.92;98781.25;5105579;28;20077;-69
2021/05/23 02:47:48;;;;;;;0.30;0.30;;;;;;;9.43;89.07;98794.31;5104913;28;20077;-69
2021/05/23 02:50:27;;;;;;;0.40;0.40;;;;;;;9.44;89.14;98779.63;5105267;28;20052;-69
2021/05/23 02:52:54;;;;;;;0.50;0.50;;;;;;;9.44;89.38;98788.22;5106056;28;20024;-68
2021/05/23 02:55:20;;;;;;;0.30;0.30;;;;;;;9.45;89.24;98789.06;5105226;28;20344;-68
2021/05/23 02:57:46;;;;;;;0.40;0.40;;;;;;;9.49;88.89;98788.09;5105992;28;20054;-69
2021/05/23 03:00:17;;;;;;;0.30;0.30;;;;;;;9.43;88.99;98778.75;5105671;28;20028;-69
2021/05/23 03:02:43;;;;;;;0.30;0.30;;;;;;;9.49;88.88;98788.94;5105882;28;20028;-68
2021/05/23 03:05:11;;;;;;;0.40;0.40;;;;;;;9.44;89.33;98789.97;5105569;28;20032;-69
2021/05/23 03:07:42;;;;;;;0.30;0.30;;;;;;;9.57;88.73;98788.69;5105676;28;20027;-68
2021/05/23 03:10:10;;;;;;;0.40;0.40;;;;;;;9.52;88.75;98786.25;5105317;28;20024;-67
2021/05/23 03:12:37;;;;;;;0.30;0.30;;;;;;;9.48;89.02;98787.25;5105595;28;20263;-67
2021/05/23 03:15:05;;;;;;;0.30;0.30;;;;;;;9.49;89.12;98793.28;5120989;28;20020;-67
2021/05/23 03:17:31;;;;;;;0.32;0.32;;;;;;;9.50;89.32;98794.97;5105323;28;20051;-67
2021/05/23 03:19:56;;;;;;;0.30;0.30;;;;;;;9.50;89.26;98785.47;5105488;28;20038;-67
2021/05/23 03:22:22;;;;;;;0.30;0.30;;;;;;;9.57;89.25;98791.28;5105730;28;20028;-67
2021/05/23 03:24:47;;;;;;;0.35;0.35;;;;;;;9.67;88.81;98797.91;5105356;28;20035;-67
2021/05/23 03:27:13;;;;;;;0.30;0.30;;;;;;;9.72;88.21;98796.91;5104824;28;20074;-68
2021/05/23 03:29:38;;;;;;;0.30;0.30;;;;;;;9.63;88.55;98792.88;5120119;28;20023;-68
2021/05/23 03:32:03;;;;;;;0.30;0.30;;;;;;;9.67;88.37;98794.44;5105319;28;20020;-68
2021/05/23 03:34:29;;;;;;;1.02;1.02;;;;;;;9.61;89.00;98802.41;5105376;28;20059;-68
2021/05/23 03:36:54;;;;;;;0.30;0.30;;;;;;;9.60;89.08;98798.13;5105226;28;20027;-68
2021/05/23 03:39:20;;;;;;;0.20;0.20;;;;;;;9.61;88.84;98800.69;5104996;28;20028;-67
2021/05/23 03:41:45;;;;;;;0.30;0.30;;;;;;;9.57;89.31;98798.22;5105320;28;20492;-68
2021/05/23 03:44:11;;;;;;;0.25;0.25;;;;;;;9.63;89.17;98798.88;5105116;28;20032;-68
2021/05/23 03:46:36;;;;;;;0.30;0.30;;;;;;;9.58;89.25;98802.50;5105267;28;20414;-68
2021/05/23 03:49:02;;;;;;;0.30;0.30;;;;;;;9.63;89.03;98806.66;5104991;28;20088;-69
2021/05/23 03:51:28;;;;;;;0.30;0.30;;;;;;;9.55;89.39;98806.06;5105148;28;20027;-69
2021/05/23 03:53:53;;;;;;;0.20;0.20;;;;;;;9.60;89.21;98813.69;5104934;28;20027;-68
2021/05/23 03:56:19;;;;;;;0.30;0.30;;;;;;;9.60;89.55;98814.50;5104609;28;20036;-69
2021/05/23 03:58:44;;;;;;;0.30;0.30;;;;;;;9.57;89.76;98809.44;5105015;28;20020;-69
2021/05/23 04:01:09;;;;;;;0.30;0.30;;;;;;;9.67;89.46;98813.44;5104899;28;20024;-68
2021/05/23 04:03:35;;;;;;;0.30;0.30;;;;;;;9.66;89.25;98811.72;5104584;28;20059;-68
2021/05/23 04:06:00;;;;;;;0.30;0.30;;;;;;;9.60;89.85;98817.09;5104957;28;20047;-69
2021/05/23 04:08:25;;;;;;;0.30;0.30;;;;;;;9.68;89.62;98814.28;5104629;28;20063;-68
2021/05/23 04:11:13;;;;;;;0.30;0.30;;;;;;;9.63;89.53;98806.66;5103702;28;20054;-68
2021/05/23 04:13:40;;;;;;;0.30;0.30;;;;;;;9.64;89.70;98810.97;5103771;28;20048;-68
2021/05/23 04:16:06;;;;;;;0.30;0.30;;;;;;;9.62;89.46;98810.16;5103650;28;20016;-68
2021/05/23 04:18:32;;;;;;;0.30;0.30;;;;;;;9.58;89.52;98816.31;5104528;28;20055;-69
2021/05/23 04:20:57;;;;;;;0.30;0.30;;;;;;;9.60;89.75;98814.50;5104561;28;20107;-68
2021/05/23 04:23:24;;;;;;;0.30;0.30;;;;;;;9.60;89.70;98819.69;5104319;28;20376;-69
2021/05/23 04:25:50;;;;;;;0.30;0.30;;;;;;;9.60;89.82;98806.75;5104239;28;20012;-69
2021/05/23 04:28:16;;;;;;;0.38;0.38;;;;;;;9.59;89.78;98818.00;5104509;28;20024;-69
2021/05/23 04:30:41;;;;;;;0.30;0.30;;;;;;;9.61;89.91;98817.97;5104375;28;20085;-68
2021/05/23 04:33:06;;;;;;;0.30;0.30;;;;;;;9.59;89.76;98823.19;5104344;28;20274;-68
2021/05/23 04:35:32;;;;;;;0.30;0.30;;;;;;;9.57;90.04;98819.78;5102832;28;20031;-69
2021/05/23 04:38:00;;;;;;;0.30;0.30;;;;;;;9.61;90.25;98817.97;5104302;28;20016;-68
2021/05/23 04:40:27;;;;;;;0.30;0.30;;;;;;;9.69;90.05;98820.31;5104101;28;20539;-69
2021/05/23 04:42:52;;;;;;;0.30;0.30;;;;;;;9.63;90.06;98824.78;5103739;28;20028;-69
2021/05/23 04:45:17;;;;;;;0.30;0.30;;;;;;;9.60;90.57;98835.25;5104231;28;20016;-71
2021/05/23 04:47:43;;;;;;;0.15;0.15;;;;;;;9.67;90.26;98826.41;5104363;28;20016;-68
2021/05/23 04:50:09;;;;;;;0.20;0.20;;;;;;;9.66;90.20;98835.06;5103918;28;20103;-69
2021/05/23 04:52:35;;;;;;;0.30;0.30;;;;;;;9.67;89.96;98829.00;5104178;28;20058;-68
2021/05/23 04:55:00;;;;;;;0.30;0.30;;;;;;;9.64;89.71;98825.66;5103558;28;20062;-69
2021/05/23 04:57:26;;;;;;;0.20;0.20;;;;;;;9.61;90.23;98833.50;5103918;28;20064;-68
2021/05/23 04:59:52;;;;;;;0.25;0.25;;;;;;;9.61;90.17;98829.19;5104026;28;20392;-68
2021/05/23 05:02:19;;;;;;;0.28;0.28;;;;;;;9.57;90.40;98840.50;5103829;28;20028;-69
2021/05/23 05:04:44;;;;;;;0.30;0.30;;;;;;;9.61;90.30;98836.97;5119421;28;20020;-69
2021/05/23 05:07:09;;;;;;;0.30;0.30;;;;;;;9.72;90.12;98841.81;5103938;28;20039;-69
2021/05/23 05:09:35;;;;;;;0.30;0.30;;;;;;;9.68;90.40;98845.38;5103538;28;20061;-71
2021/05/23 05:12:00;;;;;;;0.20;0.20;;;;;;;9.73;90.29;98842.66;5103906;28;20451;-69
2021/05/23 05:14:26;;;;;;;0.30;0.30;;;;;;;9.76;90.22;98848.59;5103766;28;20464;-69
2021/05/23 05:16:51;;;;;;;0.30;0.30;;;;;;;9.81;90.71;98853.63;5103735;28;20050;-68
2021/05/23 05:19:17;;;;;;;0.30;0.30;;;;;;;9.89;90.89;98843.88;5103609;28;20020;-71
2021/05/23 05:21:42;;;;;;;1.40;1.40;;;;;;;9.90;91.02;98847.34;5104013;28;20049;-70
2021/05/23 05:24:09;;;;;;;0.30;0.30;;;;;;;10.02;90.89;98853.88;5103591;28;20453;-70
2021/05/23 05:26:35;;;;;;;0.30;0.30;;;;;;;10.16;90.61;98854.28;5103872;28;20022;-72
2021/05/23 05:29:00;;;;;;;0.30;0.30;;;;;;;10.14;90.58;98855.25;5103579;28;20024;-70
2021/05/23 05:31:25;;;;;;;0.30;0.30;;;;;;;10.21;90.76;98850.72;5119462;28;20027;-71
2021/05/23 05:33:51;;;;;;;0.28;0.28;;;;;;;10.29;90.61;98851.28;5103663;28;20057;-70
2021/05/23 05:36:17;;;;;;;0.30;0.30;;;;;;;10.42;89.17;98859.53;5119279;28;20483;-70
2021/05/23 05:38:42;;;;;;;0.50;0.50;;;;;;;10.27;90.01;98851.34;5103494;28;20028;-72
2021/05/23 05:41:07;;;;;;;0.30;0.30;;;;;;;10.41;90.41;98863.03;5103522;28;20243;-73
2021/05/23 05:43:33;;;;;;;0.20;0.20;;;;;;;10.52;89.89;98852.31;5103507;28;20028;-70
2021/05/23 05:45:58;;;;;;;0.30;0.30;;;;;;;10.55;90.38;98857.41;5103759;28;20445;-71
2021/05/23 05:48:23;;;;;;;0.30;0.30;;;;;;;10.75;90.73;98861.09;5103552;28;20012;-70
2021/05/23 05:50:49;;;;;;;0.32;0.32;;;;;;;10.88;90.34;98857.16;5103836;28;20327;-71
2021/05/23 05:53:14;;;;;;;0.30;0.30;;;;;;;10.88;89.84;98857.16;5103491;28;20079;-70
2021/05/23 05:55:40;;;;;;;0.50;0.50;;;;;;;10.87;88.60;98857.22;5105436;28;20059;-72
2021/05/23 05:58:05;;;;;;;0.30;0.30;;;;;;;10.69;87.90;98861.31;5107409;28;20111;-71
2021/05/23 06:00:31;;;;;;;0.30;0.30;;;;;;;10.45;87.85;98866.38;5107313;28;20024;-72
2021/05/23 06:02:56;;;;;;;0.25;0.25;;;;;;;10.28;88.82;98862.56;5107138;28;20472;-71
2021/05/23 06:05:22;;;;;;;0.20;0.20;;;;;;;10.21;88.76;98872.28;5107076;28;20476;-72
2021/05/23 06:07:47;;;;;;;0.30;0.30;;;;;;;10.13;88.74;98864.75;5106838;28;20472;-71
2021/05/23 06:10:14;;;;;;;0.30;0.30;;;;;;;10.07;89.56;98870.13;5106824;28;20050;-72
2021/05/23 06:12:40;;;;;;;0.30;0.30;;;;;;;10.08;89.66;98865.81;5107089;28;20043;-71
2021/05/23 06:15:07;;;;;;;0.30;0.30;;;;;;;10.10;90.02;98872.63;5106508;28;20028;-71
2021/05/23 06:17:33;;;;;;;0.30;0.30;;;;;;;10.22;89.66;98865.38;5106776;28;20016;-72
2021/05/23 06:19:58;;;;;;;0.30;0.30;;;;;;;10.21;89.82;98868.88;5122725;28;20514;-71
2021/05/23 06:22:24;;;;;;;0.30;0.30;;;;;;;10.24;89.51;98881.75;5105635;28;20028;-73
2021/05/23 06:24:49;;;;;;;0.30;0.30;;;;;;;10.14;89.57;98876.81;5106532;28;20028;-72
2021/05/23 06:27:14;;;;;;;0.20;0.20;;;;;;;10.11;89.50;98876.09;5122608;28;20034;-72
2021/05/23 06:29:40;;;;;;;0.30;0.30;;;;;;;10.06;89.80;98885.75;5106441;28;20020;-70
2021/05/23 06:32:06;;;;;;;0.20;0.20;;;;;;;10.06;90.08;98881.41;5106963;28;20028;-71
2021/05/23 06:34:34;;;;;;;0.25;0.25;;;;;;;10.07;90.21;98890.88;5106836;28;20031;-70
2021/05/23 06:36:59;;;;;;;0.25;0.25;;;;;;;10.05;89.93;98892.66;5107062;28;20020;-70
2021/05/23 06:39:25;;;;;;;0.30;0.30;;;;;;;9.99;89.83;98892.84;5106279;28;20188;-69
2021/05/23 06:41:50;;;;;;;0.30;0.30;;;;;;;10.03;90.19;98903.09;5106650;28;20036;-71
2021/05/23 06:44:16;;;;;;;0.20;0.20;;;;;;;10.01;89.88;98893.66;5106297;28;20387;-71
2021/05/23 06:46:42;;;;;;;0.30;0.30;;;;;;;9.90;89.81;98894.81;5106648;28;20083;-72
2021/05/23 06:49:07;;;;;;;0.30;0.30;;;;;;;9.88;89.89;98901.81;5106382;28;20012;-71
2021/05/23 06:51:32;;;;;;;0.30;0.30;;;;;;;9.85;89.94;98901.91;5106347;28;20035;-71
2021/05/23 06:53:58;;;;;;;0.20;0.20;;;;;;;9.87;90.19;98904.47;5105954;28;20031;-70
2021/05/23 06:56:23;;;;;;;0.30;0.30;;;;;;;9.87;89.99;98900.09;5105614;28;20051;-71
2021/05/23 06:58:48;;;;;;;0.20;0.20;;;;;;;9.97;90.34;98910.22;5106270;28;20091;-70
2021/05/23 07:01:14;;;;;;;0.20;0.20;;;;;;;10.07;90.39;98909.03;5106111;28;20061;-71
2021/05/23 07:03:40;;;;;;;0.30;0.30;;;;;;;10.27;90.88;98908.41;5105673;28;20464;-69
2021/05/23 07:06:05;;;;;;;0.30;0.30;;;;;;;10.52;91.32;98912.00;5105311;28;20492;-68
2021/05/23 07:08:30;;;;;;;0.30;0.30;;;;;;;10.95;91.33;98916.66;5105695;28;20095;-67
2021/05/23 07:10:56;;;;;;;0.25;0.25;;;;;;;11.46;92.05;98911.44;5105259;28;20039;-68
2021/05/23 07:13:23;;;;;;;0.30;0.30;;;;;;;11.80;91.39;98914.56;5105790;28;20065;-68
2021/05/23 07:15:49;;;;;;;0.30;0.30;;;;;;;11.61;90.38;98916.06;5105471;28;20020;-67
2021/05/23 07:18:14;;;;;;;0.20;0.20;;;;;;;11.42;90.18;98917.66;5105426;28;20016;-61
2021/05/23 07:20:40;;;;;;;0.30;0.30;;;;;;;11.23;89.63;98926.13;5105602;28;20118;-65
2021/05/23 07:23:05;;;;;;;0.30;0.30;;;;;;;10.97;88.57;98927.84;5121038;28;20030;-65
2021/05/23 07:25:33;;;;;;;0.20;0.20;;;;;;;10.85;88.97;98924.78;5105237;28;20019;-65
2021/05/23 07:27:58;;;;;;;0.22;0.22;;;;;;;10.80;89.02;98931.84;5105300;28;20069;-67
2021/05/23 07:30:24;;;;;;;0.30;0.30;;;;;;;10.68;88.88;98932.25;5105121;28;20471;-66
2021/05/23 07:32:49;;;;;;;0.40;0.40;;;;;;;10.63;89.36;98924.63;5105508;28;20027;-65
2021/05/23 07:35:14;;;;;;;0.20;0.20;;;;;;;10.79;89.36;98924.97;5120735;28;20032;-66
2021/05/23 07:37:40;;;;;;;0.30;0.30;;;;;;;10.94;89.41;98935.75;5104934;28;20072;-65
2021/05/23 07:40:05;;;;;;;0.30;0.30;;;;;;;11.06;88.77;98932.72;5104626;28;20023;-65
2021/05/23 07:42:31;;;;;;;0.30;0.30;;;;;;;11.23;88.11;98939.09;5105105;28;20049;-66
2021/05/23 07:44:56;;;;;;;0.30;0.30;;;;;;;11.25;88.89;98934.69;5104889;28;20038;-66
2021/05/23 07:47:22;;;;;;;0.30;0.30;;;;;;;11.44;88.44;98939.25;5105240;28;20032;-65
2021/05/23 07:49:48;;;;;;;0.30;0.30;;;;;;;11.56;88.74;98931.00;5104791;28;20027;-64
2021/05/23 07:52:13;;;;;;;0.32;0.32;;;;;;;11.64;86.86;98946.31;5120765;28;20027;-65
2021/05/23 07:54:40;;;;;;;0.25;0.25;;;;;;;11.59;87.23;98945.63;5104829;28;20032;-63
2021/05/23 07:57:06;;;;;;;0.20;0.20;;;;;;;11.44;86.54;98953.06;5104503;28;20051;-64
2021/05/23 07:59:32;;;;;;;0.30;0.30;;;;;;;11.23;86.25;98949.50;5104318;28;20076;-64
2021/05/23 08:01:58;;;;;;;0.30;0.30;;;;;;;11.02;86.38;98957.94;5104799;28;20024;-65
2021/05/23 08:04:23;;;;;;;0.20;0.20;;;;;;;10.86;87.95;98955.00;5104528;28;20384;-67
2021/05/23 08:06:48;;;;;;;0.20;0.20;;;;;;;10.78;88.35;98959.63;5103527;28;20012;-67
2021/05/23 08:09:14;;;;;;;0.30;0.30;;;;;;;10.78;88.51;98957.88;5104439;28;20019;-66
2021/05/23 08:11:40;;;;;;;0.30;0.30;;;;;;;10.77;88.96;98963.09;5104460;28;20020;-71
2021/05/23 08:14:07;;;;;;;0.30;0.30;;;;;;;10.75;89.09;98960.56;5104556;28;20107;-70
2021/05/23 08:16:33;;;;;;;0.60;0.60;;;;;;;10.80;89.35;98957.81;5104251;28;20137;-69
2021/05/23 08:18:58;;;;;;;0.30;0.30;;;;;;;10.72;88.65;98958.06;5103923;28;20106;-70
2021/05/23 08:21:24;;;;;;;0.30;0.30;;;;;;;10.68;88.71;98959.06;5104402;28;20031;-69
2021/05/23 08:23:49;;;;;;;0.30;0.30;;;;;;;10.66;88.91;98966.06;5104136;28;20028;-68
2021/05/23 08:26:14;;;;;;;0.30;0.30;;;;;;;10.61;89.00;98963.59;5103823;28;20102;-69
2021/05/23 08:28:40;;;;;;;0.20;0.20;;;;;;;10.64;89.17;98960.91;5103612;28;20040;-69
2021/05/23 08:31:05;;;;;;;0.30;0.30;;;;;;;10.65;88.95;98967.78;5104194;28;20016;-68
2021/05/23 08:33:31;;;;;;;0.30;0.30;;;;;;;10.65;88.95;98965.19;5104146;28;20028;-68
2021/05/23 08:35:57;;;;;;;0.20;0.20;;;;;;;10.85;88.83;98979.28;5104004;28;20024;-69
2021/05/23 08:38:22;;;;;;;0.20;0.20;;;;;;;10.83;88.92;98969.88;5104016;28;20016;-69
2021/05/23 08:40:49;;;;;;;0.20;0.20;;;;;;;10.87;89.01;98964.53;5103754;28;20034;-70
2021/05/23 08:43:15;;;;;;;0.30;0.30;;;;;;;10.89;88.75;98973.09;5103891;28;20088;-69
2021/05/23 08:45:42;;;;;;;0.30;0.30;;;;;;;10.86;88.95;98977.56;5103948;28;20028;-68
2021/05/23 08:48:08;;;;;;;0.22;0.22;;;;;;;10.91;89.11;98983.41;5119820;28;20524;-69
2021/05/23 08:50:34;;;;;;;0.30;0.30;;;;;;;10.98;89.21;98982.34;5103691;28;20031;-69
2021/05/23 08:53:02;;;;;;;0.30;0.30;;;;;;;10.97;88.88;98979.78;5103960;28;20020;-69
2021/05/23 08:55:29;;;;;;;0.30;0.30;;;;;;;10.91;88.86;98981.69;5103357;28;20048;-68
2021/05/23 08:57:56;;;;;;;0.20;0.20;;;;;;;10.88;88.88;98986.97;5104031;28;20030;-68
2021/05/23 09:00:22;;;;;;;0.20;0.20;;;;;;;10.84;88.98;98982.78;5103597;28;20042;-69
2021/05/23 09:02:58;;;;;;;0.20;0.20;;;;;;;10.90;88.56;98990.38;5103737;28;20020;-69
2021/05/23 09:05:32;;;;;;;0.28;0.28;;;;;;;10.89;88.84;98999.06;5103594;28;20107;-69
2021/05/23 09:08:00;;;;;;;0.30;0.30;;;;;;;10.88;89.08;99001.69;5103695;28;20027;-69
2021/05/23 09:10:34;;;;;;;0.30;0.30;;;;;;;10.80;89.14;98999.34;5103154;28;20052;-62
2021/05/23 09:13:00;;;;;;;0.30;0.30;;;;;;;10.88;89.43;99005.16;5103374;28;20065;-66
2021/05/23 09:15:27;;;;;;;0.30;0.30;;;;;;;10.90;89.40;99011.16;5101973;28;20373;-63
2021/05/23 09:18:09;;;;;;;0.25;0.25;;;;;;;10.98;89.27;99017.81;5103410;28;20084;-68
2021/05/23 09:20:38;;;;;;;0.30;0.30;;;;;;;10.99;89.30;99014.34;5103146;28;20020;-67
2021/05/23 09:23:18;;;;;;;0.25;0.25;;;;;;;10.96;89.11;99019.66;5103308;28;20070;-67
2021/05/23 09:25:44;;;;;;;0.30;0.30;;;;;;;10.94;88.90;99018.84;5103166;28;20511;-68
2021/05/23 09:28:10;;;;;;;0.20;0.20;;;;;;;10.97;88.93;99021.34;5103592;28;20504;-67
2021/05/23 09:30:37;;;;;;;0.30;0.30;;;;;;;11.04;89.26;99022.81;5107826;28;20387;-68
2021/05/23 09:33:05;;;;;;;0.30;0.30;;;;;;;11.10;89.26;99025.22;5107909;28;20066;-62
2021/05/23 09:35:31;;;;;;;0.30;0.30;;;;;;;11.22;88.81;99030.91;5107228;28;20035;-62
2021/05/23 09:38:07;;;;;;;0.30;0.30;;;;;;;11.20;89.04;99024.94;5107169;28;20040;-69
2021/05/23 09:40:38;;;;;;;0.32;0.32;;;;;;;11.24;88.91;99032.56;5122895;28;20020;-69
2021/05/23 09:43:05;;;;;;;0.30;0.30;;;;;;;11.28;89.14;99036.75;5107641;28;20028;-69
2021/05/23 09:45:41;;;;;;;0.30;0.30;;;;;;;11.26;88.97;99042.91;5107186;28;20020;-68
2021/05/23 09:48:08;;;;;;;0.30;0.30;;;;;;;11.29;88.71;99037.63;5105890;28;20515;-67
2021/05/23 09:50:39;;;;;;;0.20;0.20;;;;;;;11.35;88.58;99042.59;5107168;28;20024;-68
2021/05/23 09:53:28;;;;;;;0.30;0.30;;;;;;;11.39;88.32;99044.19;5107071;28;20400;-66
2021/05/23 09:56:01;;;;;;;0.20;0.20;;;;;;;11.35;88.09;99052.13;5106466;28;20040;-68
2021/05/23 09:58:36;;;;;;;0.30;0.30;;;;;;;11.36;88.29;99048.63;5106817;28;20096;-67
2021/05/23 10:01:07;;;;;;;0.30;0.30;;;;;;;11.37;88.29;99060.75;5106509;28;20078;-67
2021/05/23 10:03:34;;;;;;;0.28;0.28;;;;;;;11.34;88.18;99059.06;5105216;28;20028;-67
2021/05/23 10:06:00;;;;;;;0.30;0.30;;;;;;;11.30;87.67;99057.50;5105093;28;20020;-67
2021/05/23 10:08:27;;;;;;;0.68;0.68;;;;;;;11.35;88.21;99058.19;5106819;28;20149;-68
2021/05/23 10:10:53;;;;;;;0.30;0.30;;;;;;;11.44;87.77;99072.63;5106644;28;20024;-68
2021/05/23 10:13:21;;;;;;;0.20;0.20;;;;;;;11.47;87.76;99067.31;5107052;28;20039;-66
2021/05/23 10:15:46;;;;;;;0.20;0.20;;;;;;;11.60;87.27;99067.75;5106789;28;20032;-67
2021/05/23 10:18:12;;;;;;;0.30;0.30;;;;;;;11.61;87.50;99069.44;5106525;28;20031;-65
2021/05/23 10:20:38;;;;;;;0.20;0.20;;;;;;;11.60;87.31;99067.75;5106741;28;20020;-64
2021/05/23 10:23:10;;;;;;;0.20;0.20;;;;;;;11.63;86.89;99072.84;5106306;28;20463;-64
2021/05/23 10:25:36;;;;;;;;;;;;;;;11.62;86.71;99073.75;5106580;28;20055;-64
2021/05/23 10:28:03;;;;;;;1.27;1.10;;;;;;;11.53;86.88;99087.06;5106198;28;19912;-65
2021/05/23 10:30:29;;;;;;;0.30;0.30;;;;;;;11.44;86.51;99079.59;5106294;28;20056;-64
2021/05/23 10:32:54;;;;;;;0.30;0.30;;;;;;;11.37;86.36;99086.72;5105955;28;20035;-65
2021/05/23 10:35:25;;;;;;;0.30;0.30;;;;;;;11.37;86.93;99090.16;5106338;28;20070;-65
2021/05/23 10:37:52;;;;;;;1.80;1.70;;;;;;;11.37;86.37;99092.75;5121864;28;20091;-62
2021/05/23 10:40:25;;;;;;;0.20;0.20;;;;;;;11.40;86.22;99094.41;5104984;28;20028;-65
2021/05/23 10:42:55;;;;;;;0.25;0.25;;;;;;;11.44;86.33;99093.41;5106327;28;20299;-66
2021/05/23 10:45:21;;;;;;;0.20;0.20;;;;;;;11.47;85.72;99108.06;5105925;28;20392;-65
2021/05/23 10:47:47;;;;;;;0.20;0.20;;;;;;;11.36;85.87;99103.19;5106163;28;20019;-64
2021/05/23 10:50:12;;;;;;;0.30;0.30;;;;;;;11.23;85.94;99115.75;5105857;28;20028;-64
2021/05/23 10:52:40;;;;;;;0.50;0.50;;;;;;;11.15;86.10;99109.03;5105920;28;20020;-64
2021/05/23 10:55:16;;;;;;;0.30;0.30;;;;;;;11.07;86.57;99118.81;5105477;28;20039;-64
2021/05/23 10:57:50;;;;;;;0.30;0.30;;;;;;;11.07;86.99;99113.63;5106283;28;20031;-65
2021/05/23 11:00:18;;;;;;;0.30;0.30;;;;;;;11.02;86.60;99133.72;5105668;28;20084;-63
2021/05/23 11:02:44;;;;;;;0.30;0.30;;;;;;;10.97;87.29;99120.88;5105686;28;20052;-64
2021/05/23 11:05:14;;;;;;;0.30;0.30;;;;;;;10.98;86.86;99134.69;5105488;28;20476;-65
2021/05/23 11:07:40;;;;;;;0.30;0.30;;;;;;;10.85;86.61;99119.47;5105828;28;20030;-64
2021/05/23 11:10:21;;;;;;;0.30;0.30;;;;;;;10.93;86.76;99131.41;5105196;28;20028;-63
2021/05/23 11:12:51;;;;;;;0.65;0.65;;;;;;;10.93;87.30;99134.81;5105679;28;20024;-63
2021/05/23 11:15:17;;;;;;;0.20;0.20;;;;;;;10.88;86.73;99137.56;5105273;28;20020;-63
2021/05/23 11:17:42;;;;;;;0.30;0.30;;;;;;;10.80;86.53;99142.13;5105179;28;20024;-64
2021/05/23 11:20:19;;;;;;;0.30;0.30;;;;;;;10.76;86.50;99143.13;5105073;28;20034;-64
2021/05/23 11:22:53;;;;;;;0.30;0.30;;;;;;;10.68;86.37;99145.09;5105371;28;20024;-64
2021/05/23 11:25:20;;;;;;;0.20;0.20;;;;;;;10.58;86.50;99154.88;5104957;28;20036;-65
2021/05/23 11:27:56;;;;;;;0.30;0.30;;;;;;;10.53;86.75;99161.06;5105134;28;20034;-63
2021/05/23 11:30:22;;;;;;;0.25;0.25;;;;;;;10.56;87.04;99161.88;5103518;28;20016;-66
2021/05/23 11:32:55;;;;;;;0.30;0.30;;;;;;;10.52;87.02;99164.56;5105244;28;20016;-65
2021/05/23 11:35:25;;;;;;;0.30;0.30;;;;;;;10.50;87.37;99165.50;5104947;28;20051;-66
2021/05/23 11:37:55;;;;;;;0.30;0.30;;;;;;;10.50;87.32;99171.53;5104832;28;20046;-65